createdAt,value
2023-05-10T00:00:16.988Z,55.69
2023-05-10T00:03:19.876Z,55.05
2023-05-10T00:06:22.218Z,54.43
2023-05-10T00:09:24.489Z,54.27
2023-05-10T00:12:26.696Z,54.89
2023-05-10T00:15:29.046Z,54.65
2023-05-10T00:18:31.222Z,54.17
2023-05-10T00:21:34.640Z,54.47
2023-05-10T00:24:36.912Z,54.00
2023-05-10T00:27:39.168Z,53.80
2023-05-10T00:30:41.462Z,54.03
2023-05-10T00:33:43.714Z,54.20
2023-05-10T00:36:45.918Z,53.82
2023-05-10T00:39:48.103Z,53.56
2023-05-10T00:42:50.360Z,53.92
2023-05-10T00:45:52.741Z,54.26
2023-05-10T00:48:55.175Z,53.54
2023-05-10T00:51:57.494Z,53.53
2023-05-10T00:54:59.898Z,54.38
2023-05-10T00:58:02.493Z,54.49
2023-05-10T01:01:05.863Z,53.98
2023-05-10T01:04:08.108Z,53.88
2023-05-10T01:07:10.383Z,53.39
2023-05-10T01:10:13.234Z,53.64
2023-05-10T01:13:20.075Z,53.77
2023-05-10T01:16:24.930Z,54.28
2023-05-10T01:19:28.288Z,53.67
2023-05-10T01:22:45.586Z,53.96
2023-05-10T01:26:09.632Z,55.19
2023-05-10T01:29:55.718Z,54.46
2023-05-10T01:33:12.162Z,54.60
2023-05-10T01:36:27.255Z,54.44
2023-05-10T01:39:46.973Z,54.36
2023-05-10T01:42:54.384Z,53.97
2023-05-10T01:45:56.826Z,54.31
2023-05-10T01:49:01.179Z,54.17
2023-05-10T01:52:10.052Z,53.83
2023-05-10T01:55:17.080Z,54.21
2023-05-10T01:58:26.460Z,54.03
2023-05-10T02:01:29.030Z,54.41
2023-05-10T02:04:32.019Z,54.38
2023-05-10T02:07:34.467Z,53.99
2023-05-10T02:10:37.747Z,54.48
2023-05-10T02:13:40.500Z,54.90
2023-05-10T02:16:44.158Z,55.17
2023-05-10T02:19:48.381Z,54.98
2023-05-10T02:22:52.218Z,54.31
2023-05-10T02:25:56.018Z,54.62
2023-05-10T02:28:59.409Z,54.53
2023-05-10T02:32:01.958Z,55.00
2023-05-10T02:35:04.977Z,54.96
2023-05-10T02:38:07.133Z,55.37
2023-05-10T02:41:09.752Z,55.18
2023-05-10T02:44:12.758Z,54.94
2023-05-10T02:47:15.845Z,55.18
2023-05-10T02:50:18.345Z,54.54
2023-05-10T02:53:24.061Z,54.87
2023-05-10T02:56:34.410Z,54.96
2023-05-10T02:59:36.617Z,54.54
2023-05-10T03:02:38.912Z,55.28
2023-05-10T03:05:41.425Z,54.83
2023-05-10T03:08:45.014Z,54.16
2023-05-10T03:12:26.783Z,55.21
2023-05-10T03:15:39.082Z,55.62
2023-05-10T03:19:07.249Z,55.40
2023-05-10T03:22:12.104Z,55.11
2023-05-10T03:25:16.664Z,55.21
2023-05-10T03:28:19.716Z,55.58
2023-05-10T03:31:23.031Z,54.91
2023-05-10T03:34:25.913Z,54.29
2023-05-10T03:37:28.547Z,54.84
2023-05-10T03:40:32.829Z,55.21
2023-05-10T03:43:35.375Z,55.36
2023-05-10T03:46:37.848Z,56.00
2023-05-10T03:49:40.626Z,55.37
2023-05-10T03:52:42.847Z,54.64
2023-05-10T03:55:45.862Z,55.34
2023-05-10T03:58:48.294Z,54.80
2023-05-10T04:01:50.752Z,55.03
2023-05-10T04:04:53.079Z,54.24
2023-05-10T04:07:56.083Z,54.06
2023-05-10T04:11:12.110Z,55.17
2023-05-10T04:14:14.327Z,54.80
2023-05-10T04:17:16.675Z,54.43
2023-05-10T04:20:19.121Z,54.47
2023-05-10T04:23:21.580Z,54.03
2023-05-10T04:26:23.789Z,54.81
2023-05-10T04:29:26.018Z,54.09
2023-05-10T04:32:29.100Z,54.55
2023-05-10T04:35:31.347Z,53.62
2023-05-10T04:38:33.660Z,53.14
2023-05-10T04:41:35.937Z,53.08
2023-05-10T04:44:38.403Z,52.81
2023-05-10T04:47:40.726Z,52.40
2023-05-10T04:50:43.011Z,52.50
2023-05-10T04:53:51.169Z,51.57
2023-05-10T04:57:00.052Z,50.75
2023-05-10T05:00:02.994Z,50.35
2023-05-10T05:03:05.120Z,50.11
2023-05-10T05:06:07.499Z,49.98
2023-05-10T05:09:11.129Z,50.10
2023-05-10T05:12:15.186Z,49.54
2023-05-10T05:15:17.928Z,49.48
2023-05-10T05:18:20.438Z,49.04
2023-05-10T05:21:23.301Z,49.90
2023-05-10T05:24:25.559Z,50.20
2023-05-10T05:27:28.883Z,51.65
2023-05-10T05:30:31.139Z,51.12
2023-05-10T05:33:33.411Z,50.49
2023-05-10T05:36:39.400Z,50.26
2023-05-10T05:39:41.872Z,49.46
2023-05-10T05:42:44.131Z,49.63
2023-05-10T05:45:46.444Z,48.96
2023-05-10T05:48:48.692Z,49.42
2023-05-10T05:51:51.310Z,48.54
2023-05-10T05:54:53.547Z,48.45
2023-05-10T05:57:55.809Z,48.45
2023-05-10T06:00:58.416Z,47.66
2023-05-10T06:04:00.902Z,46.78
2023-05-10T06:07:03.249Z,46.21
2023-05-10T06:10:06.856Z,45.36
2023-05-10T06:13:09.129Z,45.58
2023-05-10T06:16:11.466Z,45.58
2023-05-10T06:19:13.812Z,45.63
2023-05-10T06:22:16.036Z,45.94
2023-05-10T06:25:19.389Z,44.92
2023-05-10T06:28:22.125Z,43.02
2023-05-10T06:31:24.456Z,41.47
2023-05-10T06:34:26.799Z,36.80
2023-05-10T06:37:29.218Z,32.64
2023-05-10T06:40:31.574Z,29.56
2023-05-10T06:43:33.890Z,27.92
2023-05-10T06:46:36.359Z,28.15
2023-05-10T06:49:38.596Z,27.79
2023-05-10T06:52:40.834Z,26.86
2023-05-10T06:55:43.068Z,26.80
2023-05-10T06:58:45.329Z,27.06
2023-05-10T07:01:47.567Z,23.96
2023-05-10T07:04:49.888Z,24.40
2023-05-10T07:07:52.670Z,21.89
2023-05-10T07:11:01.096Z,27.05
2023-05-10T07:14:03.562Z,25.76
2023-05-10T07:17:05.689Z,27.86
2023-05-10T07:20:08.761Z,33.20
2023-05-10T07:23:10.984Z,32.61
2023-05-10T07:26:13.209Z,35.24
2023-05-10T07:29:15.441Z,36.81
2023-05-10T07:32:17.744Z,40.21
2023-05-10T07:35:20.019Z,38.51
2023-05-10T07:38:22.301Z,32.04
2023-05-10T07:41:24.953Z,38.01
2023-05-10T07:44:27.151Z,35.86
2023-05-10T07:47:29.309Z,31.53
2023-05-10T07:50:31.730Z,33.68
2023-05-10T07:53:34.051Z,39.16
2023-05-10T07:56:36.461Z,40.07
2023-05-10T07:59:38.706Z,38.37
2023-05-10T08:02:41.861Z,38.56
2023-05-10T08:05:44.424Z,39.27
2023-05-10T08:08:50.363Z,33.74
2023-05-10T08:11:52.633Z,33.68
2023-05-10T08:14:54.893Z,33.34
2023-05-10T08:17:57.146Z,38.49
2023-05-10T08:20:59.398Z,40.07
2023-05-10T08:24:01.612Z,36.30
2023-05-10T08:27:03.899Z,33.21
2023-05-10T08:30:06.892Z,37.36
2023-05-10T08:33:09.147Z,38.72
2023-05-10T08:36:12.348Z,38.09
2023-05-10T08:39:23.337Z,39.40
2023-05-10T08:42:31.800Z,42.65
2023-05-10T08:45:39.618Z,41.93
2023-05-10T08:48:42.316Z,40.91
2023-05-10T08:51:48.929Z,40.78
2023-05-10T08:54:51.509Z,38.99
2023-05-10T08:57:54.484Z,38.00
2023-05-10T09:00:57.208Z,39.49
2023-05-10T09:03:59.402Z,39.83
2023-05-10T09:07:02.136Z,39.36
2023-05-10T09:10:05.093Z,39.32
2023-05-10T09:13:08.231Z,40.31
2023-05-10T09:16:21.137Z,40.29
2023-05-10T09:19:24.510Z,40.08
2023-05-10T09:22:26.919Z,39.02
2023-05-10T09:25:47.889Z,39.42
2023-05-10T09:29:00.553Z,38.41
2023-05-10T09:32:02.783Z,38.31
2023-05-10T09:35:12.474Z,39.07
2023-05-10T09:38:14.769Z,39.66
2023-05-10T09:41:23.949Z,38.72
2023-05-10T09:44:27.470Z,37.80
2023-05-10T09:47:29.833Z,37.63
2023-05-10T09:50:32.355Z,37.89
2023-05-10T09:53:34.600Z,36.30
2023-05-10T09:56:39.648Z,37.50
2023-05-10T09:59:44.011Z,37.20
2023-05-10T10:02:55.084Z,36.71
2023-05-10T10:06:00.714Z,36.44
2023-05-10T10:09:03.096Z,37.19
2023-05-10T10:12:05.760Z,36.79
2023-05-10T10:15:08.375Z,37.25
2023-05-10T10:18:14.485Z,37.91
2023-05-10T10:21:16.921Z,37.46
2023-05-10T10:24:19.298Z,37.54
2023-05-10T10:27:26.284Z,36.76
2023-05-10T10:30:44.690Z,36.60
2023-05-10T10:34:08.140Z,36.27
2023-05-10T10:37:10.701Z,36.75
2023-05-10T10:40:26.796Z,38.48
2023-05-10T10:43:29.957Z,37.21
2023-05-10T10:46:32.873Z,37.90
2023-05-10T10:49:40.902Z,37.55
2023-05-10T10:52:44.455Z,38.29
2023-05-10T10:55:50.064Z,38.16
2023-05-10T10:58:53.532Z,36.99
2023-05-10T11:01:55.814Z,37.49
2023-05-10T11:04:58.024Z,36.86
2023-05-10T11:08:01.898Z,36.19
2023-05-10T11:11:09.421Z,36.11
2023-05-10T11:14:11.656Z,37.51
2023-05-10T11:17:28.070Z,37.58
2023-05-10T11:20:39.675Z,37.11
2023-05-10T11:23:44.856Z,37.08
2023-05-10T11:26:47.326Z,37.59
2023-05-10T11:29:52.816Z,35.85
2023-05-10T11:32:55.116Z,36.21
2023-05-10T11:35:57.439Z,36.67
2023-05-10T11:38:59.769Z,35.72
2023-05-10T11:42:02.012Z,35.86
2023-05-10T11:45:04.762Z,35.87
2023-05-10T11:48:06.959Z,36.13
2023-05-10T11:51:09.950Z,35.19
2023-05-10T11:54:12.764Z,35.24
2023-05-10T11:57:14.922Z,34.95
2023-05-10T12:00:17.632Z,34.54
2023-05-10T12:03:20.466Z,35.25
2023-05-10T12:06:23.046Z,35.04
2023-05-10T12:09:39.687Z,34.14
2023-05-10T12:12:46.718Z,34.39
2023-05-10T12:15:48.968Z,35.01
2023-05-10T12:18:52.677Z,34.31
2023-05-10T12:21:55.067Z,35.28
2023-05-10T12:24:59.729Z,35.39
2023-05-10T12:28:05.001Z,35.21
2023-05-10T12:31:08.222Z,34.90
2023-05-10T12:34:10.442Z,34.16
2023-05-10T12:37:13.595Z,34.58
2023-05-10T12:40:16.105Z,34.88
2023-05-10T12:43:18.480Z,35.93
2023-05-10T12:46:20.821Z,36.21
2023-05-10T12:49:23.115Z,35.44
2023-05-10T12:52:27.086Z,35.94
2023-05-10T12:55:29.312Z,35.17
2023-05-10T12:58:36.077Z,36.09
2023-05-10T13:01:38.733Z,35.80
2023-05-10T13:04:41.867Z,34.62
2023-05-10T13:07:44.942Z,34.26
2023-05-10T13:10:47.207Z,35.50
2023-05-10T13:13:49.488Z,35.65
2023-05-10T13:16:51.799Z,34.04
2023-05-10T13:19:54.091Z,34.49
2023-05-10T13:22:56.324Z,34.45
2023-05-10T13:25:58.627Z,34.62
2023-05-10T13:29:00.896Z,35.06
2023-05-10T13:32:03.665Z,34.40
2023-05-10T13:35:06.382Z,33.89
2023-05-10T13:38:09.100Z,34.58
2023-05-10T13:41:11.662Z,34.35
2023-05-10T13:44:15.422Z,33.86
2023-05-10T13:47:17.608Z,34.11
2023-05-10T13:50:19.922Z,34.04
2023-05-10T13:53:22.203Z,33.49
2023-05-10T13:56:24.497Z,33.54
2023-05-10T13:59:26.755Z,33.30
2023-05-10T14:02:29.339Z,33.05
2023-05-10T14:05:31.829Z,34.01
2023-05-10T14:08:35.215Z,33.98
2023-05-10T14:11:37.464Z,33.95
2023-05-10T14:14:40.103Z,32.20
2023-05-10T14:17:42.291Z,31.29
2023-05-10T14:20:44.456Z,31.18
2023-05-10T14:23:46.748Z,31.58
2023-05-10T14:26:49.024Z,32.51
2023-05-10T14:29:51.214Z,31.29
2023-05-10T14:32:55.070Z,30.10
2023-05-10T14:35:58.363Z,29.90
2023-05-10T14:39:00.602Z,30.92
2023-05-10T14:42:03.687Z,31.29
2023-05-10T14:45:06.659Z,30.53
2023-05-10T14:48:12.206Z,31.38
2023-05-10T14:51:14.465Z,32.03
2023-05-10T14:54:16.757Z,31.71
2023-05-10T14:57:18.982Z,31.82
2023-05-10T15:00:21.845Z,32.06
2023-05-10T15:03:24.595Z,32.62
2023-05-10T15:06:36.542Z,32.36
2023-05-10T15:09:38.757Z,32.44
2023-05-10T15:12:41.122Z,31.79
2023-05-10T15:15:43.682Z,32.00
2023-05-10T15:18:46.033Z,31.82
2023-05-10T15:21:48.375Z,32.14
2023-05-10T15:24:50.642Z,31.58
2023-05-10T15:27:52.872Z,31.42
2023-05-10T15:30:55.158Z,31.84
2023-05-10T15:34:00.322Z,31.91
2023-05-10T15:37:02.540Z,31.69
2023-05-10T15:40:05.320Z,31.14
2023-05-10T15:43:07.588Z,31.00
2023-05-10T15:46:09.828Z,31.91
2023-05-10T15:49:12.258Z,31.58
2023-05-10T15:52:14.507Z,32.00
2023-05-10T15:55:17.342Z,32.44
2023-05-10T15:58:19.768Z,31.81
2023-05-10T16:01:22.136Z,31.99
2023-05-10T16:04:24.452Z,31.92
2023-05-10T16:07:26.731Z,32.35
2023-05-10T16:10:33.258Z,32.42
2023-05-10T16:13:35.584Z,32.38
2023-05-10T16:16:37.981Z,32.61
2023-05-10T16:19:40.969Z,31.88
2023-05-10T16:22:45.566Z,32.48
2023-05-10T16:25:47.710Z,32.45
2023-05-10T16:28:49.958Z,32.17
2023-05-10T16:31:52.142Z,31.69
2023-05-10T16:34:54.577Z,31.47
2023-05-10T16:37:57.782Z,31.61
2023-05-10T16:41:02.407Z,32.24
2023-05-10T16:44:04.778Z,32.33
2023-05-10T16:47:07.732Z,33.71
2023-05-10T16:50:10.342Z,33.27
2023-05-10T16:53:13.362Z,34.20
2023-05-10T16:56:17.750Z,34.58
2023-05-10T16:59:19.979Z,34.30
2023-05-10T17:02:25.071Z,35.00
2023-05-10T17:05:27.528Z,34.92
2023-05-10T17:08:29.751Z,34.74
2023-05-10T17:11:32.981Z,35.22
2023-05-10T17:14:35.877Z,35.29
2023-05-10T17:17:38.278Z,35.97
2023-05-10T17:20:43.233Z,35.66
2023-05-10T17:23:45.435Z,36.31
2023-05-10T17:26:48.017Z,36.27
2023-05-10T17:29:50.602Z,36.20
2023-05-10T17:32:54.268Z,36.23
2023-05-10T17:35:56.912Z,37.29
2023-05-10T17:38:59.371Z,36.71
2023-05-10T17:42:01.565Z,36.63
2023-05-10T17:45:04.231Z,36.67
2023-05-10T17:48:06.420Z,36.83
2023-05-10T17:51:08.832Z,37.42
2023-05-10T17:54:11.063Z,36.91
2023-05-10T17:57:13.260Z,36.93
2023-05-10T18:00:16.023Z,37.25
2023-05-10T18:03:18.333Z,38.06
2023-05-10T18:06:20.596Z,37.57
2023-05-10T18:09:22.789Z,37.20
2023-05-10T18:12:25.134Z,37.66
2023-05-10T18:15:27.822Z,37.27
2023-05-10T18:18:29.947Z,37.91
2023-05-10T18:21:32.720Z,37.74
2023-05-10T18:24:39.688Z,37.53
2023-05-10T18:27:42.832Z,36.71
2023-05-10T18:30:45.493Z,36.91
2023-05-10T18:33:47.626Z,36.88
2023-05-10T18:36:49.744Z,36.27
2023-05-10T18:39:51.994Z,36.42
2023-05-10T18:42:54.277Z,36.96
2023-05-10T18:45:56.596Z,37.31
2023-05-10T18:48:58.867Z,36.08
2023-05-10T18:52:01.097Z,36.56
2023-05-10T18:55:03.918Z,36.37
2023-05-10T18:58:06.023Z,36.19
2023-05-10T19:01:09.017Z,35.54
2023-05-10T19:04:11.470Z,36.04
2023-05-10T19:07:13.722Z,36.52
2023-05-10T19:10:15.964Z,36.04
2023-05-10T19:13:18.354Z,36.10
2023-05-10T19:16:24.066Z,36.22
2023-05-10T19:19:27.389Z,35.88
2023-05-10T19:22:47.321Z,36.08
2023-05-10T19:25:55.599Z,36.46
2023-05-10T19:28:58.201Z,36.07
2023-05-10T19:32:00.841Z,35.98
2023-05-10T19:35:03.286Z,35.97
2023-05-10T19:38:05.638Z,36.46
2023-05-10T19:41:07.945Z,35.75
2023-05-10T19:44:10.454Z,35.65
2023-05-10T19:47:12.958Z,36.14
2023-05-10T19:50:18.310Z,35.62
2023-05-10T19:53:20.721Z,35.83
2023-05-10T19:56:23.010Z,36.25
2023-05-10T19:59:25.455Z,35.87
2023-05-10T20:02:27.718Z,35.98
2023-05-10T20:05:29.963Z,36.20
2023-05-10T20:08:32.246Z,36.41
2023-05-10T20:11:34.436Z,36.42
2023-05-10T20:14:37.632Z,36.97
2023-05-10T20:17:39.957Z,36.05
2023-05-10T20:20:43.181Z,36.27
2023-05-10T20:23:45.771Z,36.73
2023-05-10T20:26:47.974Z,36.25
2023-05-10T20:29:50.739Z,37.52
2023-05-10T20:32:52.986Z,37.22
2023-05-10T20:35:55.141Z,37.98
2023-05-10T20:38:57.351Z,36.79
2023-05-10T20:42:00.276Z,37.15
2023-05-10T20:45:02.566Z,36.76
2023-05-10T20:48:05.265Z,37.21
2023-05-10T20:51:08.867Z,37.05
2023-05-10T20:54:11.136Z,37.52
2023-05-10T20:57:13.509Z,36.79
2023-05-10T21:00:16.166Z,37.31
2023-05-10T21:03:18.765Z,36.87
2023-05-10T21:06:20.993Z,37.29
2023-05-10T21:09:23.202Z,36.87
2023-05-10T21:12:25.588Z,37.90
2023-05-10T21:15:28.722Z,36.50
2023-05-10T21:18:31.067Z,37.04
2023-05-10T21:21:33.265Z,37.00
2023-05-10T21:24:35.601Z,36.92
2023-05-10T21:27:37.956Z,37.32
2023-05-10T21:30:40.294Z,37.12
2023-05-10T21:33:42.567Z,37.67
2023-05-10T21:36:44.898Z,37.07
2023-05-10T21:39:47.181Z,37.24
2023-05-10T21:42:49.633Z,36.76
2023-05-10T21:45:52.636Z,37.47
2023-05-10T21:48:54.873Z,37.59
2023-05-10T21:51:57.085Z,37.39
2023-05-10T21:54:59.407Z,36.71
2023-05-10T21:58:01.704Z,36.97
2023-05-10T22:01:04.132Z,37.76
2023-05-10T22:04:06.413Z,37.49
2023-05-10T22:07:08.698Z,37.20
2023-05-10T22:10:11.162Z,37.15
2023-05-10T22:13:13.365Z,37.63
2023-05-10T22:16:15.795Z,37.74
2023-05-10T22:19:18.112Z,38.58
2023-05-10T22:22:20.597Z,36.37
2023-05-10T22:25:23.071Z,37.07
2023-05-10T22:28:25.460Z,36.13
2023-05-10T22:31:27.988Z,36.91
2023-05-10T22:34:30.210Z,36.35
2023-05-10T22:37:32.479Z,35.99
2023-05-10T22:40:34.674Z,36.43
2023-05-10T22:43:36.930Z,36.60
2023-05-10T22:46:39.146Z,36.58
2023-05-10T22:49:41.521Z,37.12
2023-05-10T22:52:43.747Z,37.01
2023-05-10T22:55:47.094Z,37.97
2023-05-10T22:58:49.601Z,37.59
2023-05-10T23:01:51.852Z,37.37
2023-05-10T23:04:54.172Z,36.89
2023-05-10T23:07:56.418Z,37.77
2023-05-10T23:10:58.682Z,37.38
2023-05-10T23:14:00.978Z,37.37
2023-05-10T23:17:03.237Z,38.16
2023-05-10T23:20:06.096Z,38.58
2023-05-10T23:23:08.396Z,38.42
2023-05-10T23:26:10.541Z,38.12
2023-05-10T23:29:12.830Z,38.54
2023-05-10T23:32:15.182Z,39.01
2023-05-10T23:35:17.512Z,38.69
2023-05-10T23:38:19.900Z,39.12
2023-05-10T23:41:22.455Z,39.05
2023-05-10T23:44:24.703Z,38.76
2023-05-10T23:47:26.987Z,39.31
2023-05-10T23:50:29.200Z,39.22
2023-05-10T23:53:31.422Z,39.52
2023-05-10T23:56:33.666Z,39.95
2023-05-10T23:59:35.998Z,40.01
